Time;durP1;ratioP1;P1;durP2;ratioP2;P2;SDS_P1;SDS_P2;PMS_P1;PMS_P2;Temp;Humidity;BMP_temperature;BMP_pressure;BME280_temperature;BME280_humidity;BME280_pressure;Samples;Min_cycle;Max_cycle;Signal;HPM_P1;HPM_P2
2022/06/29 00:05:22;;;;;;;7.87;2.03;;;28.50;65.00;;;;;;11021947;32;20338;-74
2022/06/29 00:11:24;;;;;;;3.97;2.15;;;28.40;64.90;;;;;;11021974;32;20448;-74
2022/06/29 00:17:26;;;;;;;6.60;2.15;;;28.40;65.00;;;;;;11021739;32;20440;-74
2022/06/29 00:23:29;;;;;;;4.22;2.08;;;28.30;65.00;;;;;;11021283;32;20030;-75
2022/06/29 00:29:31;;;;;;;8.02;2.25;;;28.30;65.10;;;;;;11021299;32;20429;-74
2022/06/29 00:35:33;;;;;;;4.85;1.77;;;28.20;65.10;;;;;;11020940;32;20018;-74
2022/06/29 00:41:43;;;;;;;3.15;1.60;;;28.10;65.40;;;;;;11020873;32;20344;-74
2022/06/29 00:47:45;;;;;;;8.00;2.40;;;28.20;65.20;;;;;;11006277;32;20019;-70
2022/06/29 00:53:50;;;;;;;4.35;2.37;;;28.30;65.10;;;;;;11015911;32;20023;-71
2022/06/29 00:59:58;;;;;;;3.37;2.00;;;28.20;65.10;;;;;;11015855;32;20049;-70
2022/06/29 01:06:00;;;;;;;5.12;1.90;;;28.20;65.40;;;;;;11015757;32;20014;-70
2022/06/29 01:12:03;;;;;;;4.30;1.73;;;28.10;65.60;;;;;;11016879;32;20030;-71
2022/06/29 01:18:06;;;;;;;2.90;1.52;;;28.00;66.20;;;;;;11015823;32;20019;-71
2022/06/29 01:24:08;;;;;;;5.62;2.25;;;27.90;66.80;;;;;;11016262;32;20026;-71
2022/06/29 01:30:18;;;;;;;6.78;1.85;;;27.90;67.00;;;;;;11017799;32;20018;-71
2022/06/29 01:36:20;;;;;;;6.55;1.50;;;27.90;67.10;;;;;;11014551;32;20022;-71
2022/06/29 01:42:55;;;;;;;3.12;1.48;;;27.90;67.40;;;;;;11014948;32;20030;-70
2022/06/29 01:48:57;;;;;;;6.25;1.80;;;27.90;66.90;;;;;;11000571;32;20346;-70
2022/06/29 01:54:59;;;;;;;4.43;1.83;;;27.80;67.00;;;;;;11013710;32;20040;-69
2022/06/29 02:01:01;;;;;;;5.25;2.25;;;27.70;66.80;;;;;;11013818;32;20049;-70
2022/06/29 02:07:04;;;;;;;5.15;1.50;;;27.60;66.70;;;;;;11013794;32;20036;-70
2022/06/29 02:13:06;;;;;;;4.57;1.58;;;27.50;66.70;;;;;;11013500;32;20191;-71
2022/06/29 02:19:08;;;;;;;12.00;2.12;;;27.50;66.50;;;;;;11013344;32;20056;-71
2022/06/29 02:25:10;;;;;;;8.05;1.95;;;27.60;66.40;;;;;;11013565;32;20045;-71
2022/06/29 02:37:34;;;;;;;4.30;1.48;;;27.60;66.20;;;;;;11013143;32;20342;-70
2022/06/29 02:43:42;;;;;;;4.62;1.65;;;27.40;66.30;;;;;;11012783;32;20054;-70
2022/06/29 02:49:44;;;;;;;9.88;1.77;;;27.40;66.40;;;;;;11012725;32;20056;-70
2022/06/29 02:55:46;;;;;;;5.97;1.90;;;27.30;66.50;;;;;;11012587;32;20076;-70
2022/06/29 03:01:53;;;;;;;4.45;1.55;;;27.20;66.50;;;;;;11012440;32;20052;-70
2022/06/29 03:07:55;;;;;;;4.95;1.90;;;27.10;66.50;;;;;;11015306;32;20036;-70
2022/06/29 03:13:58;;;;;;;3.28;1.40;;;27.10;66.30;;;;;;11019838;32;20389;-76
2022/06/29 03:20:04;;;;;;;3.47;1.70;;;27.10;66.20;;;;;;11010188;32;20034;-76
2022/06/29 03:26:06;;;;;;;3.97;1.48;;;27.20;66.10;;;;;;11023076;32;20338;-76
2022/06/29 03:32:08;;;;;;;4.18;1.52;;;27.10;66.10;;;;;;11023265;32;20014;-77
2022/06/29 03:38:10;;;;;;;7.12;1.70;;;27.10;66.00;;;;;;11023110;32;20026;-76
2022/06/29 03:44:12;;;;;;;4.93;2.42;;;27.00;66.00;;;;;;11022721;32;20049;-77
2022/06/29 03:50:14;;;;;;;5.50;2.58;;;27.00;66.10;;;;;;11022789;32;20406;-77
2022/06/29 03:56:18;;;;;;;9.70;3.65;;;27.00;65.90;;;;;;11022728;32;20049;-77
2022/06/29 04:02:20;;;;;;;12.52;3.50;;;26.70;65.80;;;;;;11022291;32;20064;-75
2022/06/29 04:08:22;;;;;;;6.85;3.22;;;26.60;65.90;;;;;;11022079;32;20026;-75
2022/06/29 04:14:26;;;;;;;4.12;1.92;;;26.40;66.10;;;;;;11021806;32;20035;-76
2022/06/29 04:26:49;;;;;;;13.70;5.00;;;26.30;66.00;;;;;;11023990;27;20033;-74
2022/06/29 04:32:51;;;;;;;8.00;3.53;;;26.30;65.80;;;;;;10983210;32;20445;-75
2022/06/29 04:38:54;;;;;;;8.07;4.20;;;26.20;65.80;;;;;;10983073;32;20041;-75
2022/06/29 04:44:56;;;;;;;12.07;4.28;;;26.10;65.90;;;;;;10982577;32;20053;-75
2022/06/29 04:50:59;;;;;;;14.57;4.25;;;26.20;66.00;;;;;;10982421;32;20022;-77
2022/06/29 04:57:01;;;;;;;12.05;3.47;;;26.00;66.20;;;;;;10982020;32;20069;-75
2022/06/29 05:03:03;;;;;;;8.95;4.05;;;26.00;66.40;;;;;;10981798;32;20053;-76
2022/06/29 05:09:05;;;;;;;8.30;3.80;;;26.00;66.40;;;;;;10981626;32;20428;-75
2022/06/29 05:15:43;;;;;;;6.65;3.90;;;26.00;66.40;;;;;;10968084;32;20022;-75
2022/06/29 05:21:48;;;;;;;14.95;4.35;;;26.00;66.20;;;;;;10981191;32;20339;-75
2022/06/29 05:27:51;;;;;;;8.43;3.40;;;25.90;66.20;;;;;;10967570;32;20035;-75
2022/06/29 05:33:52;;;;;;;12.63;3.37;;;25.90;65.90;;;;;;10980403;32;20430;-76
2022/06/29 05:39:57;;;;;;;11.93;4.15;;;25.90;66.00;;;;;;10980609;32;20428;-76
2022/06/29 05:45:59;;;;;;;13.52;5.22;;;26.00;65.70;;;;;;10978051;32;20274;-67
2022/06/29 05:52:03;;;;;;;5.47;2.97;;;26.10;65.50;;;;;;10977435;32;20053;-68
2022/06/29 05:58:05;;;;;;;7.40;3.70;;;26.10;65.00;;;;;;10975735;32;20027;-68
2022/06/29 06:04:13;;;;;;;10.10;4.28;;;26.30;64.90;;;;;;10979912;32;20058;-74
2022/06/29 06:10:20;;;;;;;6.68;3.30;;;26.20;64.80;;;;;;10979682;32;20049;-75
2022/06/29 06:16:23;;;;;;;8.93;4.53;;;26.30;64.50;;;;;;10979656;32;20014;-76
2022/06/29 06:22:25;;;;;;;5.30;3.05;;;26.40;64.20;;;;;;10961912;32;20106;-75
2022/06/29 06:28:27;;;;;;;5.05;2.85;;;26.60;64.10;;;;;;10943076;32;20023;-74
2022/06/29 06:34:35;;;;;;;9.27;4.25;;;26.80;63.80;;;;;;10941791;32;20019;-76
2022/06/29 06:46:58;;;;;;;10.85;4.00;;;26.80;63.10;;;;;;10949090;32;20366;-74
2022/06/29 06:53:02;;;;;;;7.93;2.92;;;26.80;63.00;;;;;;10948805;32;20041;-76
2022/06/29 06:59:04;;;;;;;4.72;2.75;;;26.80;63.00;;;;;;10935857;32;20030;-75
2022/06/29 07:05:06;;;;;;;7.43;2.35;;;26.80;62.90;;;;;;10945508;32;20035;-75
2022/06/29 07:11:08;;;;;;;3.92;2.00;;;26.90;62.80;;;;;;10934792;32;20072;-74
2022/06/29 07:17:10;;;;;;;7.47;3.00;;;26.90;62.70;;;;;;10948227;32;20081;-75
2022/06/29 07:23:13;;;;;;;7.18;3.05;;;26.90;62.70;;;;;;10972317;32;20015;-68
2022/06/29 07:29:16;;;;;;;5.80;3.37;;;27.00;62.70;;;;;;10967818;32;20023;-68
2022/06/29 07:35:18;;;;;;;4.25;2.17;;;27.10;62.70;;;;;;10980817;32;20053;-68
2022/06/29 07:41:20;;;;;;;5.93;3.10;;;27.30;62.50;;;;;;10980905;32;20027;-68
2022/06/29 07:47:22;;;;;;;4.97;3.08;;;27.30;62.40;;;;;;10980879;32;20019;-69
2022/06/29 07:53:24;;;;;;;4.72;2.60;;;27.20;62.60;;;;;;10981787;32;20014;-70
2022/06/29 07:59:26;;;;;;;4.47;2.45;;;27.40;62.70;;;;;;10979932;32;20018;-75
2022/06/29 08:05:28;;;;;;;4.87;2.60;;;27.50;62.50;;;;;;10983737;32;20046;-75
2022/06/29 08:11:30;;;;;;;3.47;2.25;;;27.70;62.50;;;;;;10983921;32;20019;-74
2022/06/29 08:17:33;;;;;;;5.28;2.03;;;27.70;62.40;;;;;;10969841;32;20029;-74
2022/06/29 08:23:38;;;;;;;6.93;2.60;;;27.80;62.40;;;;;;10983325;32;20022;-75
2022/06/29 08:29:40;;;;;;;11.57;3.70;;;28.00;62.00;;;;;;10983243;32;20310;-73
2022/06/29 08:35:42;;;;;;;5.55;3.55;;;28.30;61.70;;;;;;10983055;32;20033;-74
2022/06/29 08:41:44;;;;;;;6.80;2.85;;;28.30;61.50;;;;;;10982568;32;20076;-74
2022/06/29 08:47:46;;;;;;;5.60;3.30;;;28.40;61.40;;;;;;10982632;32;20409;-70
2022/06/29 08:53:50;;;;;;;11.60;4.18;;;28.70;61.00;;;;;;10979085;32;20019;-73
2022/06/29 08:59:54;;;;;;;10.13;3.72;;;28.90;60.70;;;;;;10968605;32;20019;-74
2022/06/29 09:05:57;;;;;;;12.55;3.28;;;28.90;60.50;;;;;;10981091;32;20018;-73
2022/06/29 09:11:59;;;;;;;7.35;4.32;;;29.10;60.40;;;;;;10981712;32;20463;-69
2022/06/29 09:18:04;;;;;;;12.43;4.75;;;29.50;59.90;;;;;;10967922;32;20053;-70
2022/06/29 09:24:15;;;;;;;12.55;4.57;;;29.80;59.50;;;;;;10981243;32;20347;-70
2022/06/29 09:30:31;;;;;;;8.77;4.85;;;29.90;59.50;;;;;;10980968;32;20414;-71
2022/06/29 09:36:34;;;;;;;11.20;4.60;;;30.00;59.10;;;;;;10967462;32;20006;-73
2022/06/29 09:42:37;;;;;;;10.27;4.32;;;30.30;58.60;;;;;;10967166;32;20026;-74
2022/06/29 09:48:41;;;;;;;9.52;5.47;;;30.40;57.90;;;;;;10980499;32;20088;-74
2022/06/29 09:54:57;;;;;;;11.93;7.70;;;30.40;58.20;;;;;;10980190;32;20030;-73
2022/06/29 10:07:29;;;;;;;11.60;5.87;;;30.60;57.50;;;;;;10977260;32;20382;-68
2022/06/29 10:13:40;;;;;;;14.77;7.78;;;30.80;57.30;;;;;;10977708;32;20027;-69
2022/06/29 10:19:49;;;;;;;15.65;7.95;;;30.80;57.00;;;;;;10961887;32;20386;-68
2022/06/29 10:25:55;;;;;;;7.68;5.12;;;30.90;57.30;;;;;;10977513;32;20045;-70
2022/06/29 10:32:11;;;;;;;12.27;7.50;;;30.80;57.20;;;;;;10976769;32;20425;-70
2022/06/29 10:38:22;;;;;;;15.50;7.25;;;30.60;57.60;;;;;;10977981;32;20019;-69
2022/06/29 10:45:16;;;;;;;13.05;6.00;;;30.60;57.70;;;;;;10974953;32;20318;-74
2022/06/29 10:51:19;;;;;;;11.80;6.93;;;31.00;56.90;;;;;;10775765;33;20393;-68
2022/06/29 10:57:21;;;;;;;12.95;7.45;;;31.00;56.80;;;;;;10784577;33;20025;-69
2022/06/29 11:03:25;;;;;;;7.60;5.43;;;30.90;56.70;;;;;;10772079;33;20040;-71
2022/06/29 11:16:05;;;;;;;17.10;5.43;;;31.70;55.30;;;;;;10786043;33;20027;-68
2022/06/29 11:22:18;;;;;;;13.85;5.87;;;31.70;55.00;;;;;;10787510;33;20046;-69
2022/06/29 11:28:29;;;;;;;8.70;5.72;;;31.40;55.00;;;;;;10322474;32;20913150;-69
2022/06/29 11:34:31;;;;;;;12.20;6.03;;;31.20;55.60;;;;;;10982596;32;20300;-68
2022/06/29 11:40:41;;;;;;;16.85;6.30;;;31.20;55.50;;;;;;10981716;32;20034;-67
2022/06/29 11:46:46;;;;;;;8.05;4.50;;;31.00;55.70;;;;;;10980506;32;20030;-68
2022/06/29 11:52:51;;;;;;;16.75;5.25;;;30.60;56.90;;;;;;10983364;32;20049;-69
2022/06/29 11:58:56;;;;;;;6.53;3.05;;;30.00;58.50;;;;;;10976280;32;20030;-69
2022/06/29 12:05:00;;;;;;;8.70;3.17;;;29.40;60.50;;;;;;10967378;32;20377;-70
2022/06/29 12:11:03;;;;;;;4.50;2.45;;;28.80;62.60;;;;;;10983754;32;20022;-68
2022/06/29 12:17:09;;;;;;;5.03;2.72;;;28.10;64.90;;;;;;10983640;32;20023;-69
2022/06/29 12:23:11;;;;;;;5.60;2.22;;;27.80;66.10;;;;;;10980675;32;20381;-70
2022/06/29 12:29:15;;;;;;;7.15;3.17;;;27.60;67.30;;;;;;11001609;27;20053;-68
2022/06/29 12:35:18;;;;;;;4.82;3.10;;;27.30;69.40;;;;;;11021206;32;20014;-67
2022/06/29 12:41:20;;;;;;;7.65;5.60;;;27.20;70.40;;;;;;11020851;32;20018;-67
2022/06/29 12:47:33;;;;;;;5.65;2.33;;;27.20;70.80;;;;;;11006867;32;20022;-67
2022/06/29 12:53:37;;;;;;;2.10;1.60;;;27.10;70.80;;;;;;11020287;32;20023;-68
2022/06/29 12:59:39;;;;;;;4.80;2.30;;;26.90;70.30;;;;;;11006624;32;20053;-72
2022/06/29 13:05:42;;;;;;;3.35;1.85;;;27.00;70.00;;;;;;11019750;32;20025;-72
2022/06/29 13:11:44;;;;;;;5.55;3.08;;;27.30;69.10;;;;;;11019617;32;20014;-73
2022/06/29 13:17:46;;;;;;;11.63;3.58;;;27.70;68.40;;;;;;11019392;32;20022;-73
2022/06/29 13:23:48;;;;;;;5.45;3.70;;;27.80;68.50;;;;;;11019255;32;20026;-69
2022/06/29 13:29:51;;;;;;;6.12;4.12;;;27.90;68.80;;;;;;11019625;32;20010;-68
2022/06/29 13:35:53;;;;;;;11.50;4.95;;;28.00;68.30;;;;;;11017631;32;20026;-67
2022/06/29 13:42:10;;;;;;;8.75;5.78;;;28.30;68.30;;;;;;10998566;32;20095;-71
2022/06/29 13:48:12;;;;;;;6.72;4.57;;;28.70;67.70;;;;;;10982737;32;20053;-70
2022/06/29 13:54:14;;;;;;;11.32;6.30;;;28.70;67.80;;;;;;10987309;32;20026;-71
2022/06/29 14:00:18;;;;;;;11.43;5.65;;;28.60;67.80;;;;;;11018320;32;20015;-71
2022/06/29 14:06:48;;;;;;;12.32;7.87;;;28.80;67.40;;;;;;11013660;32;20041;-71
2022/06/29 14:12:51;;;;;;;8.25;5.75;;;28.90;67.30;;;;;;11017942;32;20445;-71
2022/06/29 14:18:53;;;;;;;9.20;5.87;;;28.80;67.50;;;;;;11017941;32;20014;-72
2022/06/29 14:25:11;;;;;;;10.07;5.55;;;28.80;67.70;;;;;;11017626;32;20049;-70
2022/06/29 14:31:13;;;;;;;13.80;5.68;;;29.00;67.20;;;;;;11004116;32;20052;-70
2022/06/29 14:37:15;;;;;;;9.00;4.87;;;29.20;66.90;;;;;;11013235;32;20391;-71
2022/06/29 14:43:17;;;;;;;18.73;7.15;;;29.30;66.60;;;;;;11017450;32;20416;-71
2022/06/29 14:49:19;;;;;;;11.43;5.25;;;29.60;65.90;;;;;;11017258;32;20058;-72
2022/06/29 14:55:21;;;;;;;12.23;6.10;;;29.50;65.80;;;;;;11017231;32;20015;-71
2022/06/29 15:01:25;;;;;;;14.87;4.50;;;29.60;65.50;;;;;;11016993;32;20026;-71
2022/06/29 15:07:31;;;;;;;9.95;5.43;;;29.80;65.10;;;;;;11014950;32;20034;-72
2022/06/29 15:13:52;;;;;;;15.35;6.50;;;29.80;64.90;;;;;;10985985;32;20022;-72
2022/06/29 15:19:56;;;;;;;7.75;3.60;;;29.80;64.50;;;;;;10985798;32;20391;-70
2022/06/29 15:25:58;;;;;;;7.35;4.78;;;29.90;64.30;;;;;;10985446;32;20026;-70
2022/06/29 15:32:00;;;;;;;9.25;5.10;;;30.00;64.10;;;;;;10985132;32;20322;-70
2022/06/29 15:44:23;;;;;;;10.85;4.57;;;30.10;63.50;;;;;;10984260;32;20031;-69
2022/06/29 15:50:31;;;;;;;11.80;5.18;;;30.20;63.50;;;;;;10984388;32;20014;-71
2022/06/29 15:56:33;;;;;;;7.68;4.87;;;30.30;63.20;;;;;;10984023;32;20037;-73
2022/06/29 16:02:38;;;;;;;9.60;4.57;;;30.40;62.70;;;;;;10983936;32;20046;-73
2022/06/29 16:08:41;;;;;;;7.32;4.05;;;30.50;62.50;;;;;;10983967;32;20022;-72
2022/06/29 16:14:45;;;;;;;9.35;4.22;;;30.60;62.20;;;;;;10983612;32;20335;-74
2022/06/29 16:20:47;;;;;;;9.57;3.75;;;30.80;61.80;;;;;;10967921;32;20023;-73
2022/06/29 16:26:56;;;;;;;10.68;3.72;;;30.80;61.50;;;;;;10983287;32;20076;-67
2022/06/29 16:32:58;;;;;;;5.18;2.97;;;30.80;61.10;;;;;;10983173;32;20046;-69
2022/06/29 16:39:01;;;;;;;5.18;2.97;;;30.80;61.20;;;;;;10983023;32;20046;-69
2022/06/29 16:45:29;;;;;;;9.77;3.22;;;30.90;60.80;;;;;;10978878;32;20026;-69
2022/06/29 16:51:31;;;;;;;9.10;3.60;;;30.90;60.40;;;;;;10996752;32;20026;-70
2022/06/29 16:57:33;;;;;;;6.95;3.28;;;31.00;60.10;;;;;;11002030;32;20065;-72
2022/06/29 17:03:36;;;;;;;6.30;3.40;;;31.00;60.00;;;;;;10981873;32;20057;-72
2022/06/29 17:09:39;;;;;;;3.95;2.67;;;30.90;60.10;;;;;;10981466;32;20030;-72
2022/06/29 17:15:42;;;;;;;7.05;3.00;;;31.00;60.00;;;;;;10981771;32;20022;-72
2022/06/29 17:21:44;;;;;;;5.72;2.80;;;30.90;60.00;;;;;;10968008;32;20022;-73
2022/06/29 17:27:46;;;;;;;6.43;2.37;;;31.00;59.70;;;;;;10980953;32;20030;-73
2022/06/29 17:33:49;;;;;;;8.45;2.62;;;31.00;59.70;;;;;;10981022;32;20038;-69
2022/06/29 17:39:51;;;;;;;5.47;2.37;;;31.00;59.60;;;;;;10980823;32;20030;-70
2022/06/29 17:46:05;;;;;;;5.05;3.12;;;31.00;59.50;;;;;;10980390;32;20038;-70
2022/06/29 17:52:08;;;;;;;4.72;2.15;;;30.90;59.50;;;;;;10966787;32;20326;-70
2022/06/29 17:58:09;;;;;;;11.68;2.53;;;31.40;58.90;;;;;;10979708;32;20054;-70
2022/06/29 18:04:12;;;;;;;5.25;2.25;;;32.00;57.60;;;;;;10979899;32;20049;-70
2022/06/29 18:10:14;;;;;;;9.07;3.08;;;31.80;58.10;;;;;;10979770;32;20022;-70
2022/06/29 18:16:16;;;;;;;5.85;2.95;;;31.30;59.10;;;;;;10979780;32;20326;-70
2022/06/29 18:22:18;;;;;;;6.25;3.05;;;30.90;59.80;;;;;;10979660;32;20030;-70
2022/06/29 18:28:20;;;;;;;5.62;1.92;;;30.60;60.30;;;;;;10979018;32;20054;-70
2022/06/29 18:34:22;;;;;;;5.55;2.15;;;30.30;60.60;;;;;;10978404;32;20050;-69
2022/06/29 18:40:25;;;;;;;4.57;2.50;;;30.20;60.90;;;;;;10984875;32;20324;-72
2022/06/29 18:46:28;;;;;;;3.22;2.12;;;30.00;61.20;;;;;;10986326;32;20057;-72
2022/06/29 18:52:31;;;;;;;3.47;2.12;;;29.80;61.40;;;;;;10986044;32;20046;-72
2022/06/29 18:58:34;;;;;;;6.15;2.80;;;29.80;61.60;;;;;;10996844;32;20034;-72
2022/06/29 19:04:38;;;;;;;8.02;3.45;;;29.70;61.80;;;;;;11006994;32;20349;-72
2022/06/29 19:10:42;;;;;;;5.57;3.42;;;29.50;61.90;;;;;;10988282;32;20099;-72
2022/06/29 19:16:45;;;;;;;7.32;2.78;;;29.30;62.10;;;;;;10972002;32;20045;-69
2022/06/29 19:22:47;;;;;;;6.90;2.22;;;29.30;62.30;;;;;;10985276;32;20038;-72
2022/06/29 19:28:50;;;;;;;7.70;3.58;;;29.30;62.40;;;;;;10981158;32;20022;-70
2022/06/29 19:34:53;;;;;;;7.78;3.30;;;29.10;62.50;;;;;;10984612;32;20038;-69
2022/06/29 19:40:55;;;;;;;4.75;2.70;;;29.10;62.70;;;;;;10984986;32;20023;-72
2022/06/29 19:46:58;;;;;;;4.47;2.03;;;29.00;63.00;;;;;;10984048;32;20019;-73
2022/06/29 19:53:00;;;;;;;7.03;5.10;;;28.90;63.20;;;;;;10983289;32;20084;-72
2022/06/29 19:59:03;;;;;;;7.55;4.70;;;28.90;63.50;;;;;;10977469;32;20417;-72
2022/06/29 20:05:05;;;;;;;8.20;4.70;;;28.90;63.50;;;;;;10984299;32;20023;-72
2022/06/29 20:11:19;;;;;;;7.80;4.07;;;28.80;63.60;;;;;;10983998;32;20433;-69
2022/06/29 20:17:21;;;;;;;12.15;5.32;;;28.80;63.70;;;;;;10983699;32;20068;-69
2022/06/29 20:23:23;;;;;;;7.43;3.22;;;28.70;63.80;;;;;;10994440;32;20057;-69
2022/06/29 20:29:27;;;;;;;7.15;4.60;;;28.60;63.80;;;;;;10977412;27;20403;-69
2022/06/29 20:35:31;;;;;;;9.70;3.75;;;28.50;64.00;;;;;;10945554;32;20065;-69
2022/06/29 20:41:33;;;;;;;4.65;3.10;;;28.40;64.10;;;;;;10970953;32;20061;-69
2022/06/29 20:47:35;;;;;;;5.78;3.33;;;28.40;64.30;;;;;;10968790;32;20023;-69
2022/06/29 20:53:44;;;;;;;7.35;3.80;;;28.40;64.30;;;;;;10940821;32;20057;-69
2022/06/29 20:59:46;;;;;;;9.02;3.85;;;28.30;64.50;;;;;;10943660;32;20011;-69
2022/06/29 21:05:50;;;;;;;7.60;3.30;;;28.30;64.50;;;;;;10946381;32;20049;-72
2022/06/29 21:11:55;;;;;;;5.70;3.65;;;28.30;64.70;;;;;;10955781;32;20338;-74
2022/06/29 21:17:57;;;;;;;5.93;3.30;;;28.30;64.90;;;;;;10930444;32;20034;-73
2022/06/29 21:23:59;;;;;;;8.43;3.05;;;28.10;64.90;;;;;;10943852;32;20395;-72
2022/06/29 21:30:01;;;;;;;6.43;3.58;;;28.00;65.20;;;;;;10943511;32;20045;-72
2022/06/29 21:36:03;;;;;;;7.28;3.95;;;28.00;65.40;;;;;;10943513;32;20394;-74
2022/06/29 21:42:06;;;;;;;8.02;3.22;;;27.90;65.50;;;;;;10929737;32;20045;-73
2022/06/29 21:54:46;;;;;;;7.60;3.67;;;27.90;65.70;;;;;;10942787;32;20015;-73
2022/06/29 22:00:48;;;;;;;5.60;3.87;;;27.80;65.70;;;;;;10941792;32;20093;-74
2022/06/29 22:06:50;;;;;;;2.62;2.25;;;27.80;65.80;;;;;;10942248;32;20062;-73
2022/06/29 22:12:53;;;;;;;8.48;4.82;;;27.80;66.00;;;;;;10942097;32;20019;-73
2022/06/29 22:18:56;;;;;;;7.37;3.35;;;27.70;66.20;;;;;;10941981;32;20018;-73
2022/06/29 22:24:59;;;;;;;12.93;4.80;;;27.70;66.30;;;;;;10941872;32;20268;-73
2022/06/29 22:31:01;;;;;;;6.62;3.10;;;27.70;66.30;;;;;;10937463;32;20019;-73
2022/06/29 22:37:04;;;;;;;9.98;4.15;;;27.50;66.30;;;;;;10941592;32;20023;-74
2022/06/29 22:43:06;;;;;;;5.03;3.53;;;27.20;66.70;;;;;;10941569;32;20391;-74
2022/06/29 22:49:08;;;;;;;7.47;3.30;;;27.00;66.90;;;;;;10941516;32;20323;-73
2022/06/29 22:55:11;;;;;;;9.68;4.30;;;27.00;67.30;;;;;;10941311;32;20051;-73
2022/06/29 23:01:13;;;;;;;6.20;3.50;;;27.10;67.20;;;;;;10941197;32;20019;-73
2022/06/29 23:07:15;;;;;;;5.15;3.25;;;27.30;67.10;;;;;;10941077;32;20049;-73
2022/06/29 23:13:17;;;;;;;6.93;4.18;;;27.30;67.10;;;;;;10941078;32;20023;-73
2022/06/29 23:19:19;;;;;;;8.32;5.18;;;27.30;67.30;;;;;;10941060;32;20023;-73
2022/06/29 23:25:21;;;;;;;6.75;4.87;;;27.30;67.30;;;;;;10930888;32;20023;-73
2022/06/29 23:31:26;;;;;;;9.25;4.97;;;27.20;67.40;;;;;;10947849;32;20407;-73
2022/06/29 23:37:27;;;;;;;7.40;4.75;;;27.10;67.40;;;;;;10947501;32;20023;-73
2022/06/29 23:43:29;;;;;;;6.85;4.85;;;27.00;67.50;;;;;;10947245;32;20031;-74
2022/06/29 23:49:32;;;;;;;7.12;5.28;;;26.90;67.50;;;;;;10947273;32;20015;-70
2022/06/29 23:55:34;;;;;;;6.82;4.87;;;26.90;67.50;;;;;;10946976;32;20046;-70
